Time;durP1;ratioP1;P1;durP2;ratioP2;P2;SDS_P1;SDS_P2;PMS_P1;PMS_P2;Temp;Humidity;BMP_temperature;BMP_pressure;BME280_temperature;BME280_humidity;BME280_pressure;Samples;Min_cycle;Max_cycle;Signal;HPM_P1;HPM_P2
2021/07/24 00:00:55;;;;;;;12.47;10.67;;;;;;;;;;1481333;40;20470;-79
2021/07/24 00:01:57;;;;;;;13.10;10.90;;;;;;;;;;1485020;39;20415;-78
2021/07/24 00:02:59;;;;;;;11.43;10.23;;;;;;;;;;1487925;39;20401;-79
2021/07/24 00:04:00;;;;;;;11.60;10.27;;;;;;;;;;1490177;39;20405;-78
2021/07/24 00:05:18;;;;;;;12.77;10.50;;;;;;;;;;1494848;39;20411;-79
2021/07/24 00:06:20;;;;;;;15.50;10.73;;;;;;;;;;1494658;39;20440;-78
2021/07/24 00:07:22;;;;;;;12.68;9.93;;;;;;;;;;1494014;39;20514;-78
2021/07/24 00:08:24;;;;;;;12.30;10.25;;;;;;;;;;1494354;39;20399;-78
2021/07/24 00:09:29;;;;;;;12.15;10.82;;;;;;;;;;1493866;39;20475;-78
2021/07/24 00:10:30;;;;;;;15.32;10.65;;;;;;;;;;1494566;39;20407;-78
2021/07/24 00:11:32;;;;;;;13.35;10.27;;;;;;;;;;1494395;39;21111;-78
2021/07/24 00:12:34;;;;;;;14.00;10.73;;;;;;;;;;1494308;39;20463;-78
2021/07/24 00:13:38;;;;;;;11.38;10.13;;;;;;;;;;1489392;39;21023;-78
2021/07/24 00:14:40;;;;;;;14.07;11.10;;;;;;;;;;1489937;39;20408;-78
2021/07/24 00:15:41;;;;;;;11.85;10.02;;;;;;;;;;1494170;39;20852;-78
2021/07/24 00:16:43;;;;;;;11.88;10.20;;;;;;;;;;1493346;39;20508;-79
2021/07/24 00:17:44;;;;;;;12.40;10.52;;;;;;;;;;1484769;40;20419;-78
2021/07/24 00:18:46;;;;;;;12.30;10.25;;;;;;;;;;1485574;39;20435;-78
2021/07/24 00:19:47;;;;;;;14.60;10.40;;;;;;;;;;1490294;39;20462;-79
2021/07/24 00:20:49;;;;;;;15.80;10.70;;;;;;;;;;1490136;39;20904;-79
2021/07/24 00:21:51;;;;;;;11.00;9.60;;;;;;;;;;1490058;39;20533;-78
2021/07/24 00:22:52;;;;;;;15.77;11.05;;;;;;;;;;1489594;39;20417;-79
2021/07/24 00:23:54;;;;;;;12.90;10.05;;;;;;;;;;1485487;39;20411;-79
2021/07/24 00:24:55;;;;;;;13.18;10.00;;;;;;;;;;1489280;39;20519;-79
2021/07/24 00:25:57;;;;;;;12.88;9.55;;;;;;;;;;1485440;40;20399;-79
2021/07/24 00:26:58;;;;;;;12.75;9.63;;;;;;;;;;1481043;39;20428;-78
2021/07/24 00:28:00;;;;;;;14.35;9.85;;;;;;;;;;1489703;39;20450;-78
2021/07/24 00:29:05;;;;;;;10.95;9.82;;;;;;;;;;1490262;39;20436;-78
2021/07/24 00:30:07;;;;;;;12.98;10.20;;;;;;;;;;1489721;39;20658;-79
2021/07/24 00:31:09;;;;;;;12.65;9.73;;;;;;;;;;1489947;39;20465;-78
2021/07/24 00:32:11;;;;;;;12.48;10.32;;;;;;;;;;1489482;39;20412;-79
2021/07/24 00:33:12;;;;;;;11.52;9.57;;;;;;;;;;1489692;39;21384;-78
2021/07/24 00:34:17;;;;;;;12.18;10.00;;;;;;;;;;1488975;39;20393;-78
2021/07/24 00:35:19;;;;;;;13.20;10.93;;;;;;;;;;1489590;39;20386;-78
2021/07/24 00:36:20;;;;;;;13.50;10.02;;;;;;;;;;1489578;39;20487;-78
2021/07/24 00:37:22;;;;;;;13.50;9.93;;;;;;;;;;1489711;39;20413;-78
2021/07/24 00:38:25;;;;;;;12.48;9.90;;;;;;;;;;1489157;39;20498;-78
2021/07/24 00:39:26;;;;;;;11.38;10.02;;;;;;;;;;1489233;39;20786;-78
2021/07/24 00:40:30;;;;;;;10.15;9.13;;;;;;;;;;1489594;39;20428;-78
2021/07/24 00:41:41;;;;;;;11.68;9.40;;;;;;;;;;1490340;39;20542;-78
2021/07/24 00:42:44;;;;;;;12.57;9.30;;;;;;;;;;1490033;39;20481;-78
2021/07/24 00:43:49;;;;;;;14.02;10.45;;;;;;;;;;1487689;39;20419;-78
2021/07/24 00:44:54;;;;;;;12.85;10.13;;;;;;;;;;1485313;40;20517;-79
2021/07/24 00:45:57;;;;;;;14.55;10.02;;;;;;;;;;1486002;39;20454;-78
2021/07/24 00:47:01;;;;;;;11.20;9.90;;;;;;;;;;1485510;39;20447;-79
2021/07/24 00:48:03;;;;;;;11.02;9.93;;;;;;;;;;1486127;40;20442;-79
2021/07/24 00:49:06;;;;;;;14.77;10.20;;;;;;;;;;1485453;40;20419;-78
2021/07/24 00:50:13;;;;;;;13.73;9.90;;;;;;;;;;1485518;40;20407;-78
2021/07/24 00:51:25;;;;;;;11.48;9.77;;;;;;;;;;1485883;39;20450;-78
2021/07/24 00:52:27;;;;;;;12.23;10.00;;;;;;;;;;1486122;39;20454;-78
2021/07/24 00:53:37;;;;;;;17.35;10.10;;;;;;;;;;1485622;40;20923;-78
2021/07/24 00:54:39;;;;;;;13.45;9.88;;;;;;;;;;1485359;40;20436;-79
2021/07/24 00:55:42;;;;;;;12.70;9.73;;;;;;;;;;1485367;40;21078;-79
2021/07/24 00:56:44;;;;;;;12.70;10.27;;;;;;;;;;1485958;40;20493;-78
2021/07/24 00:57:45;;;;;;;12.15;9.80;;;;;;;;;;1480804;40;20468;-79
2021/07/24 00:58:47;;;;;;;15.40;9.63;;;;;;;;;;1481540;40;20523;-78
2021/07/24 00:59:49;;;;;;;12.50;10.02;;;;;;;;;;1485912;40;20691;-79
2021/07/24 01:00:50;;;;;;;11.97;9.73;;;;;;;;;;1485980;39;20894;-79
2021/07/24 01:01:52;;;;;;;10.90;9.65;;;;;;;;;;1485524;40;20657;-79
2021/07/24 01:02:54;;;;;;;11.15;9.65;;;;;;;;;;1488098;39;20410;-79
2021/07/24 01:03:56;;;;;;;11.40;9.40;;;;;;;;;;1485445;39;20855;-79
2021/07/24 01:05:01;;;;;;;10.88;9.65;;;;;;;;;;1489652;39;20405;-78
2021/07/24 01:06:03;;;;;;;10.90;9.70;;;;;;;;;;1489444;39;20378;-78
2021/07/24 01:07:06;;;;;;;11.85;9.85;;;;;;;;;;1489385;39;20417;-79
2021/07/24 01:08:07;;;;;;;10.77;9.68;;;;;;;;;;1489198;39;20582;-79
2021/07/24 01:09:10;;;;;;;12.65;9.63;;;;;;;;;;1489217;39;20469;-79
2021/07/24 01:10:12;;;;;;;13.40;9.30;;;;;;;;;;1490052;39;20417;-78
2021/07/24 01:11:25;;;;;;;15.43;9.88;;;;;;;;;;1490325;39;20381;-78
2021/07/24 01:12:26;;;;;;;11.75;9.88;;;;;;;;;;1489668;39;20422;-78
2021/07/24 01:13:28;;;;;;;12.32;9.82;;;;;;;;;;1488984;39;20778;-79
2021/07/24 01:14:33;;;;;;;12.48;10.23;;;;;;;;;;1485686;39;20415;-79
2021/07/24 01:15:35;;;;;;;10.63;9.45;;;;;;;;;;1485862;39;21084;-79
2021/07/24 01:16:37;;;;;;;11.73;10.02;;;;;;;;;;1483142;40;20426;-79
2021/07/24 01:17:38;;;;;;;11.13;9.93;;;;;;;;;;1485218;40;20426;-78
2021/07/24 01:18:40;;;;;;;11.77;9.53;;;;;;;;;;1485191;40;20446;-79
2021/07/24 01:19:41;;;;;;;16.08;9.82;;;;;;;;;;1481145;40;20426;-78
2021/07/24 01:20:45;;;;;;;12.18;10.18;;;;;;;;;;1485269;40;20419;-78
2021/07/24 01:21:46;;;;;;;11.10;9.38;;;;;;;;;;1489511;39;20511;-79
2021/07/24 01:22:48;;;;;;;12.65;10.15;;;;;;;;;;1488686;39;20409;-78
2021/07/24 01:23:49;;;;;;;11.85;9.50;;;;;;;;;;1489861;39;20456;-79
2021/07/24 01:24:51;;;;;;;14.75;10.20;;;;;;;;;;1489281;39;20809;-79
2021/07/24 01:25:53;;;;;;;12.25;9.65;;;;;;;;;;1485387;39;20423;-79
2021/07/24 01:26:55;;;;;;;10.32;9.23;;;;;;;;;;1489205;39;20764;-79
2021/07/24 01:27:56;;;;;;;14.40;10.07;;;;;;;;;;1489686;39;20468;-79
2021/07/24 01:28:58;;;;;;;14.45;10.35;;;;;;;;;;1489944;39;20485;-79
2021/07/24 01:29:59;;;;;;;12.57;9.35;;;;;;;;;;1489448;39;20528;-79
2021/07/24 01:31:05;;;;;;;13.63;9.70;;;;;;;;;;1484952;39;20423;-79
2021/07/24 01:32:07;;;;;;;14.93;9.80;;;;;;;;;;1487118;39;20411;-79
2021/07/24 01:33:10;;;;;;;12.85;10.00;;;;;;;;;;1485676;40;20431;-79
2021/07/24 01:34:11;;;;;;;12.80;9.97;;;;;;;;;;1485358;40;20584;-79
2021/07/24 01:35:13;;;;;;;11.50;10.05;;;;;;;;;;1485017;40;20517;-79
2021/07/24 01:36:14;;;;;;;11.52;10.18;;;;;;;;;;1485882;39;20458;-79
2021/07/24 01:37:16;;;;;;;11.23;9.57;;;;;;;;;;1485745;40;20453;-79
2021/07/24 01:38:19;;;;;;;15.07;10.02;;;;;;;;;;1480910;40;20447;-79
2021/07/24 01:39:21;;;;;;;12.63;9.65;;;;;;;;;;1481080;40;20472;-79
2021/07/24 01:40:22;;;;;;;11.82;10.57;;;;;;;;;;1485895;39;20474;-78
2021/07/24 01:41:23;;;;;;;13.00;10.52;;;;;;;;;;1485818;39;20454;-79
2021/07/24 01:42:25;;;;;;;14.32;10.02;;;;;;;;;;1484959;39;20769;-78
2021/07/24 01:43:26;;;;;;;11.18;10.00;;;;;;;;;;1485140;39;20423;-78
2021/07/24 01:44:28;;;;;;;11.23;9.77;;;;;;;;;;1485243;40;20750;-78
2021/07/24 01:45:30;;;;;;;13.65;10.25;;;;;;;;;;1476906;40;21039;-78
2021/07/24 01:46:31;;;;;;;11.82;10.07;;;;;;;;;;1481636;40;20570;-78
2021/07/24 01:47:35;;;;;;;14.75;10.25;;;;;;;;;;1483645;40;20530;-78
2021/07/24 01:48:52;;;;;;;12.38;10.07;;;;;;;;;;1485835;40;20427;-78
2021/07/24 01:52:48;;;;;;;12.65;10.82;;;;;;;;;;1486537;40;20524;-78
2021/07/24 01:53:54;;;;;;;16.33;10.02;;;;;;;;;;1486715;39;20407;-79
2021/07/24 01:55:01;;;;;;;12.55;10.23;;;;;;;;;;1483815;40;20486;-78
2021/07/24 01:56:05;;;;;;;12.23;10.10;;;;;;;;;;1484716;40;20412;-78
2021/07/24 01:57:10;;;;;;;13.15;11.05;;;;;;;;;;1488754;39;20850;-78
2021/07/24 01:58:14;;;;;;;11.52;10.32;;;;;;;;;;1491865;39;20420;-77
2021/07/24 01:59:18;;;;;;;12.35;10.40;;;;;;;;;;1493567;39;20452;-78
2021/07/24 02:00:20;;;;;;;15.13;10.43;;;;;;;;;;1486841;40;20467;-78
2021/07/24 02:01:28;;;;;;;11.65;10.43;;;;;;;;;;1482799;39;20401;-78
2021/07/24 02:02:31;;;;;;;11.68;10.27;;;;;;;;;;1490464;39;20415;-78
2021/07/24 02:03:43;;;;;;;11.25;10.07;;;;;;;;;;1486912;39;20410;-78
2021/07/24 02:04:51;;;;;;;11.75;10.27;;;;;;;;;;1485911;40;20892;-78
2021/07/24 02:05:53;;;;;;;14.68;11.05;;;;;;;;;;1485914;40;20499;-79
2021/07/24 02:06:55;;;;;;;13.48;11.00;;;;;;;;;;1485594;39;20812;-79
2021/07/24 02:08:01;;;;;;;11.98;10.10;;;;;;;;;;1485571;39;20422;-78
2021/07/24 02:09:03;;;;;;;14.43;10.75;;;;;;;;;;1490036;39;20475;-78
2021/07/24 02:10:05;;;;;;;13.20;10.45;;;;;;;;;;1490424;39;20472;-78
2021/07/24 02:11:07;;;;;;;13.35;10.18;;;;;;;;;;1490079;39;20401;-78
2021/07/24 02:12:10;;;;;;;13.82;11.48;;;;;;;;;;1489834;39;20436;-78
2021/07/24 02:13:13;;;;;;;14.35;10.68;;;;;;;;;;1487761;39;20422;-78
2021/07/24 02:14:14;;;;;;;13.68;10.50;;;;;;;;;;1486633;39;20417;-78
2021/07/24 02:15:16;;;;;;;13.48;11.27;;;;;;;;;;1485714;40;20492;-78
2021/07/24 02:16:17;;;;;;;12.70;10.52;;;;;;;;;;1485699;40;20403;-78
2021/07/24 02:17:19;;;;;;;14.63;11.25;;;;;;;;;;1486500;40;20419;-78
2021/07/24 02:18:23;;;;;;;13.15;10.55;;;;;;;;;;1489352;39;20480;-78
2021/07/24 02:19:25;;;;;;;16.95;10.88;;;;;;;;;;1490634;39;20857;-78
2021/07/24 02:20:28;;;;;;;14.40;11.15;;;;;;;;;;1490478;39;20522;-78
2021/07/24 02:21:31;;;;;;;13.45;10.70;;;;;;;;;;1490574;39;20523;-78
2021/07/24 02:22:32;;;;;;;14.40;11.15;;;;;;;;;;1490178;39;20450;-78
2021/07/24 02:23:34;;;;;;;15.10;11.35;;;;;;;;;;1490486;39;20393;-78
2021/07/24 02:24:36;;;;;;;14.30;11.40;;;;;;;;;;1490547;39;20397;-78
2021/07/24 02:25:37;;;;;;;13.63;10.73;;;;;;;;;;1485681;40;20886;-78
2021/07/24 02:26:43;;;;;;;16.55;11.80;;;;;;;;;;1485770;39;20468;-78
2021/07/24 02:27:46;;;;;;;15.40;11.00;;;;;;;;;;1490329;39;20818;-78
2021/07/24 02:28:48;;;;;;;16.67;11.00;;;;;;;;;;1485732;40;20407;-78
2021/07/24 02:29:49;;;;;;;16.53;10.40;;;;;;;;;;1485968;39;20395;-78
2021/07/24 02:30:52;;;;;;;15.63;10.35;;;;;;;;;;1490257;39;21146;-78
2021/07/24 02:31:55;;;;;;;18.80;12.00;;;;;;;;;;1485519;40;20902;-79
2021/07/24 02:32:57;;;;;;;16.90;12.27;;;;;;;;;;1487314;39;20432;-78
2021/07/24 02:33:59;;;;;;;13.73;11.55;;;;;;;;;;1481908;40;20492;-78
2021/07/24 02:35:00;;;;;;;16.10;11.65;;;;;;;;;;1486221;39;20411;-78
2021/07/24 02:36:02;;;;;;;16.13;11.52;;;;;;;;;;1490806;39;20393;-78
2021/07/24 02:37:04;;;;;;;15.80;11.90;;;;;;;;;;1490227;39;20511;-78
2021/07/24 02:38:06;;;;;;;13.98;11.73;;;;;;;;;;1485718;40;20806;-78
2021/07/24 02:39:07;;;;;;;13.82;11.63;;;;;;;;;;1485849;39;20555;-78
2021/07/24 02:40:09;;;;;;;13.80;11.20;;;;;;;;;;1490611;39;20610;-78
2021/07/24 02:41:11;;;;;;;13.82;11.52;;;;;;;;;;1490497;39;20478;-78
2021/07/24 02:42:14;;;;;;;15.82;11.60;;;;;;;;;;1490465;39;20993;-78
2021/07/24 02:43:15;;;;;;;12.73;11.25;;;;;;;;;;1490640;39;20516;-78
2021/07/24 02:44:17;;;;;;;17.87;12.27;;;;;;;;;;1485857;40;20529;-78
2021/07/24 02:45:18;;;;;;;17.20;12.05;;;;;;;;;;1485702;39;20507;-78
2021/07/24 02:46:20;;;;;;;16.05;11.35;;;;;;;;;;1494534;39;20422;-78
2021/07/24 02:47:22;;;;;;;16.63;12.40;;;;;;;;;;1494671;39;20407;-78
2021/07/24 02:48:24;;;;;;;15.87;12.47;;;;;;;;;;1494537;39;20453;-78
2021/07/24 02:49:25;;;;;;;15.90;11.55;;;;;;;;;;1485321;40;20499;-78
2021/07/24 02:50:26;;;;;;;12.77;11.27;;;;;;;;;;1485712;39;20443;-78
2021/07/24 02:51:28;;;;;;;15.38;11.88;;;;;;;;;;1494601;39;20435;-78
2021/07/24 02:52:30;;;;;;;15.30;11.77;;;;;;;;;;1494431;39;20458;-78
2021/07/24 02:53:31;;;;;;;17.13;12.82;;;;;;;;;;1494742;39;20447;-78
2021/07/24 02:54:33;;;;;;;15.73;13.23;;;;;;;;;;1494639;39;20504;-78
2021/07/24 02:55:34;;;;;;;15.65;12.15;;;;;;;;;;1489879;39;20385;-78
2021/07/24 02:56:36;;;;;;;15.30;12.23;;;;;;;;;;1482833;40;20484;-78
2021/07/24 02:57:37;;;;;;;13.98;11.85;;;;;;;;;;1485672;39;20495;-78
2021/07/24 02:58:39;;;;;;;17.13;12.52;;;;;;;;;;1490434;39;20514;-78
2021/07/24 02:59:41;;;;;;;21.25;13.55;;;;;;;;;;1485720;40;20448;-78
2021/07/24 03:00:42;;;;;;;17.00;11.90;;;;;;;;;;1477816;40;20423;-78
2021/07/24 03:01:44;;;;;;;14.95;12.30;;;;;;;;;;1481596;39;20408;-78
2021/07/24 03:02:46;;;;;;;15.65;12.48;;;;;;;;;;1488779;39;20429;-78
2021/07/24 03:03:48;;;;;;;14.82;12.52;;;;;;;;;;1490014;39;20408;-78
2021/07/24 03:04:50;;;;;;;15.05;12.15;;;;;;;;;;1489743;39;20810;-79
2021/07/24 03:05:51;;;;;;;14.07;12.05;;;;;;;;;;1490187;39;20490;-79
2021/07/24 03:06:54;;;;;;;13.43;12.00;;;;;;;;;;1489553;39;20546;-79
2021/07/24 03:07:56;;;;;;;19.23;12.90;;;;;;;;;;1490073;39;20408;-79
2021/07/24 03:08:57;;;;;;;15.18;12.32;;;;;;;;;;1493777;39;20532;-79
2021/07/24 03:09:59;;;;;;;15.57;12.98;;;;;;;;;;1494341;39;20745;-79
2021/07/24 03:11:00;;;;;;;16.63;13.13;;;;;;;;;;1494611;39;20536;-79
2021/07/24 03:12:03;;;;;;;17.33;13.02;;;;;;;;;;1494560;39;20789;-78
2021/07/24 03:13:04;;;;;;;16.90;12.35;;;;;;;;;;1494077;39;21002;-78
2021/07/24 03:14:06;;;;;;;18.27;12.35;;;;;;;;;;1489710;39;20875;-78
2021/07/24 03:15:08;;;;;;;16.48;12.50;;;;;;;;;;1490040;39;20412;-78
2021/07/24 03:16:09;;;;;;;17.42;13.00;;;;;;;;;;1494490;39;20418;-79
2021/07/24 03:17:11;;;;;;;16.48;12.07;;;;;;;;;;1494499;39;20507;-79
2021/07/24 03:18:13;;;;;;;16.27;12.93;;;;;;;;;;1490401;39;20961;-78
2021/07/24 03:19:14;;;;;;;14.80;12.07;;;;;;;;;;1490377;39;20543;-79
2021/07/24 03:20:16;;;;;;;14.95;11.75;;;;;;;;;;1490437;39;20408;-78
2021/07/24 03:21:18;;;;;;;15.60;12.05;;;;;;;;;;1490210;39;20853;-78
2021/07/24 03:22:20;;;;;;;13.98;11.95;;;;;;;;;;1490122;39;20480;-79
2021/07/24 03:23:21;;;;;;;15.10;12.50;;;;;;;;;;1485602;40;20560;-78
2021/07/24 03:24:23;;;;;;;15.83;12.67;;;;;;;;;;1485622;40;20883;-78
2021/07/24 03:25:24;;;;;;;15.63;11.98;;;;;;;;;;1481251;40;20498;-79
2021/07/24 03:26:26;;;;;;;16.60;12.02;;;;;;;;;;1485990;39;20455;-78
2021/07/24 03:27:28;;;;;;;16.17;12.37;;;;;;;;;;1485596;40;20430;-78
2021/07/24 03:28:29;;;;;;;16.33;12.18;;;;;;;;;;1481564;40;20413;-78
2021/07/24 03:29:31;;;;;;;14.52;12.02;;;;;;;;;;1485676;39;20907;-78
2021/07/24 03:30:32;;;;;;;16.27;13.27;;;;;;;;;;1490538;39;20473;-78
2021/07/24 03:31:35;;;;;;;14.68;12.13;;;;;;;;;;1490189;39;20472;-78
2021/07/24 03:32:37;;;;;;;14.52;12.45;;;;;;;;;;1491627;39;20408;-78
2021/07/24 03:33:38;;;;;;;17.85;12.65;;;;;;;;;;1494393;39;20439;-78
2021/07/24 03:34:40;;;;;;;17.80;12.93;;;;;;;;;;1489763;39;20464;-79
2021/07/24 03:35:41;;;;;;;19.27;12.45;;;;;;;;;;1489820;39;20424;-78
2021/07/24 03:36:43;;;;;;;16.02;12.60;;;;;;;;;;1489920;39;20401;-78
2021/07/24 03:37:44;;;;;;;20.40;12.82;;;;;;;;;;1485386;39;20415;-78
2021/07/24 03:38:46;;;;;;;17.67;13.00;;;;;;;;;;1490018;39;20467;-79
2021/07/24 03:39:47;;;;;;;18.63;12.95;;;;;;;;;;1489525;39;20450;-78
2021/07/24 03:40:49;;;;;;;13.77;11.90;;;;;;;;;;1489381;39;20491;-78
2021/07/24 03:41:51;;;;;;;15.65;12.57;;;;;;;;;;1489742;39;20951;-78
2021/07/24 03:42:54;;;;;;;16.20;12.37;;;;;;;;;;1485553;39;20603;-79
2021/07/24 03:43:55;;;;;;;16.27;12.85;;;;;;;;;;1485824;39;20419;-78
2021/07/24 03:44:57;;;;;;;14.45;12.38;;;;;;;;;;1485726;39;20458;-79
2021/07/24 03:45:58;;;;;;;16.80;12.65;;;;;;;;;;1489802;39;20397;-78
2021/07/24 03:47:00;;;;;;;16.73;13.05;;;;;;;;;;1489937;39;20900;-78
2021/07/24 03:48:02;;;;;;;17.05;12.43;;;;;;;;;;1485307;40;20469;-79
2021/07/24 03:49:04;;;;;;;18.15;12.20;;;;;;;;;;1485617;39;20522;-78
2021/07/24 03:50:06;;;;;;;14.73;13.05;;;;;;;;;;1485504;39;20503;-78
2021/07/24 03:51:12;;;;;;;15.02;11.90;;;;;;;;;;1485673;40;20497;-79
2021/07/24 03:52:13;;;;;;;16.85;13.02;;;;;;;;;;1485921;39;20437;-79
2021/07/24 03:53:15;;;;;;;15.60;12.02;;;;;;;;;;1490299;39;20499;-78
2021/07/24 03:54:16;;;;;;;16.20;12.43;;;;;;;;;;1490017;39;20447;-79
2021/07/24 03:55:18;;;;;;;15.32;12.27;;;;;;;;;;1485617;40;20467;-78
2021/07/24 03:56:21;;;;;;;15.02;11.98;;;;;;;;;;1485806;39;20513;-78
2021/07/24 03:57:22;;;;;;;15.50;12.32;;;;;;;;;;1490155;39;20453;-78
2021/07/24 03:58:24;;;;;;;17.27;12.10;;;;;;;;;;1489911;39;20393;-78
2021/07/24 03:59:26;;;;;;;16.20;13.07;;;;;;;;;;1485578;40;20426;-79
2021/07/24 04:00:33;;;;;;;16.75;12.52;;;;;;;;;;1485847;39;20484;-79
2021/07/24 04:01:35;;;;;;;15.05;11.65;;;;;;;;;;1490453;39;20409;-78
2021/07/24 04:02:39;;;;;;;15.05;11.85;;;;;;;;;;1489852;39;20420;-78
2021/07/24 04:03:41;;;;;;;16.42;11.85;;;;;;;;;;1489994;39;20397;-79
2021/07/24 04:04:45;;;;;;;17.25;12.02;;;;;;;;;;1490893;39;20394;-79
2021/07/24 04:05:47;;;;;;;17.88;11.98;;;;;;;;;;1494731;39;20473;-78
2021/07/24 04:06:49;;;;;;;14.70;12.48;;;;;;;;;;1494451;39;20463;-78
2021/07/24 04:07:51;;;;;;;17.02;12.57;;;;;;;;;;1494336;39;20537;-79
2021/07/24 04:08:56;;;;;;;13.80;12.30;;;;;;;;;;1489641;39;20805;-79
2021/07/24 04:09:58;;;;;;;12.85;10.80;;;;;;;;;;1490196;39;20452;-79
2021/07/24 04:11:00;;;;;;;16.30;12.82;;;;;;;;;;1490618;39;20397;-78
2021/07/24 04:12:01;;;;;;;14.93;11.75;;;;;;;;;;1489557;39;20401;-79
2021/07/24 04:13:03;;;;;;;16.92;12.00;;;;;;;;;;1490454;39;20393;-78
2021/07/24 04:14:06;;;;;;;17.08;12.48;;;;;;;;;;1490464;39;20493;-79
2021/07/24 04:15:08;;;;;;;18.10;12.25;;;;;;;;;;1490165;39;20498;-78
2021/07/24 04:16:10;;;;;;;19.65;12.88;;;;;;;;;;1490416;39;20492;-78
2021/07/24 04:17:12;;;;;;;14.98;13.35;;;;;;;;;;1485443;40;21033;-78
2021/07/24 04:18:13;;;;;;;18.20;13.20;;;;;;;;;;1485432;39;20478;-78
2021/07/24 04:19:15;;;;;;;13.30;11.80;;;;;;;;;;1490303;39;20577;-78
2021/07/24 04:20:20;;;;;;;16.23;12.68;;;;;;;;;;1486658;39;20433;-78
2021/07/24 04:21:23;;;;;;;16.08;12.32;;;;;;;;;;1486143;39;20390;-79
2021/07/24 04:22:25;;;;;;;15.30;12.40;;;;;;;;;;1490272;39;20416;-79
2021/07/24 04:23:27;;;;;;;15.25;12.73;;;;;;;;;;1494217;39;21066;-79
2021/07/24 04:24:28;;;;;;;14.73;11.40;;;;;;;;;;1494095;39;20403;-78
2021/07/24 04:25:30;;;;;;;17.02;12.30;;;;;;;;;;1489658;39;20385;-78
2021/07/24 04:26:32;;;;;;;15.40;11.75;;;;;;;;;;1489429;39;20394;-78
2021/07/24 04:27:34;;;;;;;16.13;13.38;;;;;;;;;;1494575;39;20804;-79
2021/07/24 04:28:36;;;;;;;15.00;12.32;;;;;;;;;;1489991;39;20421;-78
2021/07/24 04:29:38;;;;;;;14.35;11.35;;;;;;;;;;1482811;40;20416;-79
2021/07/24 04:30:39;;;;;;;19.17;12.27;;;;;;;;;;1483759;39;20452;-78
2021/07/24 04:31:41;;;;;;;19.05;12.57;;;;;;;;;;1492225;39;20393;-78
2021/07/24 04:32:42;;;;;;;18.50;13.30;;;;;;;;;;1488014;40;20537;-79
2021/07/24 04:33:44;;;;;;;15.32;12.45;;;;;;;;;;1488241;39;20936;-78
2021/07/24 04:34:45;;;;;;;19.37;12.57;;;;;;;;;;1495873;39;20455;-78
2021/07/24 04:35:48;;;;;;;16.35;12.15;;;;;;;;;;1488276;39;20769;-78
2021/07/24 04:36:50;;;;;;;16.92;12.35;;;;;;;;;;1485915;39;20415;-78
2021/07/24 04:37:52;;;;;;;14.85;11.90;;;;;;;;;;1490815;39;20478;-78
2021/07/24 04:38:53;;;;;;;16.70;11.70;;;;;;;;;;1485934;40;20529;-78
2021/07/24 04:39:55;;;;;;;15.10;11.90;;;;;;;;;;1485419;39;20470;-79
2021/07/24 04:40:56;;;;;;;14.55;11.98;;;;;;;;;;1489886;39;20909;-79
2021/07/24 04:41:58;;;;;;;17.08;11.45;;;;;;;;;;1490243;39;20477;-79
2021/07/24 04:42:59;;;;;;;19.48;12.07;;;;;;;;;;1485131;40;20478;-78
2021/07/24 04:44:01;;;;;;;14.10;11.65;;;;;;;;;;1485480;39;20465;-78
2021/07/24 04:45:03;;;;;;;14.45;11.73;;;;;;;;;;1490247;39;20417;-78
2021/07/24 04:46:06;;;;;;;17.13;12.05;;;;;;;;;;1490250;39;20473;-78
2021/07/24 04:47:08;;;;;;;14.95;11.80;;;;;;;;;;1490219;39;20409;-78
2021/07/24 04:48:10;;;;;;;16.83;12.55;;;;;;;;;;1486890;39;20463;-78
2021/07/24 04:49:12;;;;;;;16.02;12.75;;;;;;;;;;1489592;39;20527;-78
2021/07/24 04:50:13;;;;;;;15.35;12.27;;;;;;;;;;1489868;39;20527;-77
2021/07/24 04:51:16;;;;;;;13.80;11.68;;;;;;;;;;1489642;39;20414;-78
2021/07/24 04:52:19;;;;;;;14.02;12.50;;;;;;;;;;1494393;39;20455;-78
2021/07/24 04:53:20;;;;;;;17.88;11.80;;;;;;;;;;1489773;39;20563;-79
2021/07/24 04:54:22;;;;;;;15.95;11.50;;;;;;;;;;1485318;39;20819;-78
2021/07/24 04:55:24;;;;;;;15.48;12.07;;;;;;;;;;1485625;39;20487;-78
2021/07/24 04:56:26;;;;;;;14.70;11.90;;;;;;;;;;1489707;39;20846;-78
2021/07/24 04:57:31;;;;;;;15.48;11.82;;;;;;;;;;1493624;39;20420;-78
2021/07/24 04:58:34;;;;;;;17.02;12.50;;;;;;;;;;1493929;39;20505;-78
2021/07/24 04:59:37;;;;;;;17.35;11.73;;;;;;;;;;1489575;39;20493;-78
2021/07/24 05:00:42;;;;;;;12.77;10.95;;;;;;;;;;1485235;39;20515;-78
2021/07/24 05:01:44;;;;;;;16.23;11.82;;;;;;;;;;1489524;39;20413;-79
2021/07/24 05:02:46;;;;;;;13.75;11.15;;;;;;;;;;1485097;40;20772;-78
2021/07/24 05:03:48;;;;;;;15.88;12.05;;;;;;;;;;1485532;39;20492;-78
2021/07/24 05:04:50;;;;;;;15.37;11.57;;;;;;;;;;1485387;40;20399;-78
2021/07/24 05:05:53;;;;;;;14.30;11.77;;;;;;;;;;1485510;39;20733;-78
2021/07/24 05:06:55;;;;;;;16.08;11.65;;;;;;;;;;1494277;39;20404;-79
2021/07/24 05:07:57;;;;;;;15.93;11.82;;;;;;;;;;1486109;39;20443;-78
2021/07/24 05:08:59;;;;;;;16.50;11.80;;;;;;;;;;1476850;40;20886;-78
2021/07/24 05:10:00;;;;;;;14.73;12.57;;;;;;;;;;1481249;39;20412;-78
2021/07/24 05:11:03;;;;;;;18.55;12.25;;;;;;;;;;1492621;39;20543;-78
2021/07/24 05:12:05;;;;;;;13.75;11.48;;;;;;;;;;1494198;39;20404;-78
2021/07/24 05:13:07;;;;;;;14.95;11.18;;;;;;;;;;1489320;39;20405;-78
2021/07/24 05:14:08;;;;;;;15.18;11.13;;;;;;;;;;1489448;39;20444;-78
2021/07/24 05:15:10;;;;;;;12.68;11.30;;;;;;;;;;1493557;39;20410;-78
2021/07/24 05:16:11;;;;;;;15.57;11.57;;;;;;;;;;1493716;39;20548;-78
2021/07/24 05:17:14;;;;;;;14.70;11.27;;;;;;;;;;1494247;39;20415;-78
2021/07/24 05:18:16;;;;;;;13.10;11.05;;;;;;;;;;1493934;39;20438;-78
2021/07/24 05:19:17;;;;;;;20.42;12.38;;;;;;;;;;1494006;39;20769;-78
2021/07/24 05:20:19;;;;;;;18.17;11.85;;;;;;;;;;1489090;39;20910;-78
2021/07/24 05:21:20;;;;;;;13.82;11.40;;;;;;;;;;1489378;39;20409;-78
2021/07/24 05:22:22;;;;;;;16.95;11.43;;;;;;;;;;1493932;39;20420;-78
2021/07/24 05:23:24;;;;;;;16.35;11.85;;;;;;;;;;1491611;39;20469;-78
2021/07/24 05:24:25;;;;;;;17.45;11.30;;;;;;;;;;1485163;40;20435;-78
2021/07/24 05:25:27;;;;;;;15.48;12.18;;;;;;;;;;1485351;39;20418;-78
2021/07/24 05:26:29;;;;;;;13.10;11.25;;;;;;;;;;1490105;39;20432;-78
2021/07/24 05:27:30;;;;;;;16.85;11.93;;;;;;;;;;1485248;40;20415;-79
2021/07/24 05:28:32;;;;;;;13.43;11.52;;;;;;;;;;1485635;39;20835;-78
2021/07/24 05:29:33;;;;;;;17.50;12.00;;;;;;;;;;1489744;39;20527;-78
2021/07/24 05:30:35;;;;;;;17.17;11.10;;;;;;;;;;1489859;39;20783;-79
2021/07/24 05:31:36;;;;;;;17.95;11.38;;;;;;;;;;1489933;39;21121;-78
2021/07/24 05:32:41;;;;;;;15.50;11.60;;;;;;;;;;1485227;40;20423;-78
2021/07/24 05:33:43;;;;;;;16.20;12.18;;;;;;;;;;1481117;40;20519;-78
2021/07/24 05:34:44;;;;;;;13.32;11.02;;;;;;;;;;1485429;39;20459;-78
2021/07/24 05:35:46;;;;;;;14.25;11.57;;;;;;;;;;1484736;40;20462;-78
2021/07/24 05:36:48;;;;;;;14.38;10.95;;;;;;;;;;1485426;39;20479;-78
2021/07/24 05:37:49;;;;;;;14.43;11.90;;;;;;;;;;1489718;39;20497;-78
2021/07/24 05:38:51;;;;;;;14.15;11.35;;;;;;;;;;1489182;39;20390;-78
2021/07/24 05:39:52;;;;;;;12.85;11.35;;;;;;;;;;1489128;39;21089;-79
2021/07/24 05:40:55;;;;;;;13.38;11.85;;;;;;;;;;1492789;39;20749;-79
2021/07/24 05:41:57;;;;;;;12.82;11.35;;;;;;;;;;1493719;39;20478;-79
2021/07/24 05:43:01;;;;;;;15.82;11.95;;;;;;;;;;1494020;39;20484;-79
2021/07/24 05:44:02;;;;;;;14.10;11.48;;;;;;;;;;1493933;39;20408;-78
2021/07/24 05:45:05;;;;;;;15.40;11.35;;;;;;;;;;1493689;39;20439;-78
2021/07/24 05:46:06;;;;;;;15.63;11.48;;;;;;;;;;1494167;39;20737;-78
2021/07/24 05:47:08;;;;;;;16.23;11.50;;;;;;;;;;1489154;39;20523;-78
2021/07/24 05:48:09;;;;;;;16.70;11.77;;;;;;;;;;1489182;39;20779;-78
2021/07/24 05:49:11;;;;;;;16.43;11.37;;;;;;;;;;1489294;39;20494;-78
2021/07/24 05:50:13;;;;;;;14.35;11.00;;;;;;;;;;1489547;39;20448;-78
2021/07/24 05:51:14;;;;;;;15.75;11.70;;;;;;;;;;1493969;39;20453;-78
2021/07/24 05:52:16;;;;;;;16.90;12.07;;;;;;;;;;1489588;39;20543;-78
2021/07/24 05:53:17;;;;;;;14.32;11.93;;;;;;;;;;1489534;39;21164;-78
2021/07/24 05:54:22;;;;;;;15.00;11.90;;;;;;;;;;1493924;39;20765;-78
2021/07/24 05:55:24;;;;;;;15.02;11.30;;;;;;;;;;1494326;39;20517;-78
2021/07/24 05:56:25;;;;;;;15.27;11.38;;;;;;;;;;1494520;39;20421;-78
2021/07/24 05:57:26;;;;;;;15.98;12.30;;;;;;;;;;1494165;39;20452;-79
2021/07/24 05:58:29;;;;;;;16.75;11.45;;;;;;;;;;1494238;39;20460;-78
2021/07/24 05:59:33;;;;;;;14.30;11.18;;;;;;;;;;1485881;39;20483;-80
2021/07/24 06:00:34;;;;;;;14.90;11.70;;;;;;;;;;1477511;40;20410;-80
2021/07/24 06:01:36;;;;;;;14.52;11.50;;;;;;;;;;1481178;39;20479;-80
2021/07/24 06:02:39;;;;;;;18.30;11.82;;;;;;;;;;1485377;40;20507;-80
2021/07/24 06:03:41;;;;;;;14.88;11.60;;;;;;;;;;1485177;39;20458;-80
2021/07/24 06:04:43;;;;;;;14.55;11.05;;;;;;;;;;1490219;39;20890;-80
2021/07/24 06:05:44;;;;;;;16.98;11.27;;;;;;;;;;1484604;40;20395;-80
2021/07/24 06:06:46;;;;;;;14.43;11.65;;;;;;;;;;1481206;40;20551;-80